createdAt,value
2022-12-24T00:02:16.046Z,8.90
2022-12-24T00:05:17.912Z,8.90
2022-12-24T00:08:20.207Z,8.90
2022-12-24T00:11:22.016Z,8.90
2022-12-24T00:14:23.711Z,8.80
2022-12-24T00:17:25.400Z,8.80
2022-12-24T00:20:27.065Z,8.90
2022-12-24T00:23:28.763Z,8.90
2022-12-24T00:26:30.480Z,8.90
2022-12-24T00:29:35.554Z,8.90
2022-12-24T00:32:38.720Z,8.90
2022-12-24T00:35:40.988Z,8.90
2022-12-24T00:38:42.692Z,8.90
2022-12-24T00:41:44.701Z,9.00
2022-12-24T00:44:46.410Z,9.00
2022-12-24T00:47:48.137Z,8.90
2022-12-24T00:50:51.165Z,8.90
2022-12-24T00:53:53.318Z,9.00
2022-12-24T00:56:55.009Z,8.90
2022-12-24T00:59:56.712Z,8.90
2022-12-24T01:02:58.572Z,9.00
2022-12-24T01:06:00.295Z,9.00
2022-12-24T01:09:01.929Z,8.90
2022-12-24T01:12:03.750Z,8.90
2022-12-24T01:15:06.184Z,8.90
2022-12-24T01:18:07.950Z,8.90
2022-12-24T01:21:09.699Z,9.00
2022-12-24T01:24:15.918Z,9.00
2022-12-24T01:27:17.604Z,9.00
2022-12-24T01:30:19.593Z,8.90
2022-12-24T01:33:21.444Z,8.90
2022-12-24T01:36:23.221Z,8.90
2022-12-24T01:39:24.975Z,8.90
2022-12-24T01:42:45.051Z,8.90
2022-12-24T01:45:49.726Z,8.90
2022-12-24T01:49:04.304Z,8.90
2022-12-24T01:52:10.842Z,8.90
2022-12-24T01:55:18.070Z,8.90
2022-12-24T01:58:21.643Z,8.80
2022-12-24T02:01:23.856Z,8.90
2022-12-24T02:04:59.064Z,8.80
2022-12-24T02:08:03.613Z,8.80
2022-12-24T02:11:19.654Z,8.80
2022-12-24T02:14:21.951Z,8.70
2022-12-24T02:17:23.591Z,8.70
2022-12-24T02:20:52.581Z,8.70
2022-12-24T02:24:08.672Z,8.60
2022-12-24T02:27:34.255Z,8.60
2022-12-24T02:30:54.072Z,8.60
2022-12-24T02:34:11.931Z,8.60
2022-12-24T02:37:19.664Z,8.60
2022-12-24T02:40:33.631Z,8.70
2022-12-24T02:43:38.757Z,8.70
2022-12-24T02:46:40.558Z,8.70
2022-12-24T02:49:45.674Z,8.70
2022-12-24T02:52:48.717Z,8.70
2022-12-24T02:56:08.708Z,8.70
2022-12-24T02:59:16.156Z,8.70
2022-12-24T03:02:36.719Z,8.70
2022-12-24T03:05:55.018Z,8.70
2022-12-24T03:09:45.968Z,8.70
2022-12-24T03:12:55.864Z,8.60
2022-12-24T03:15:57.569Z,8.60
2022-12-24T03:19:00.861Z,8.60
2022-12-24T03:22:07.493Z,8.60
2022-12-24T03:25:09.364Z,8.60
2022-12-24T03:28:14.070Z,8.60
2022-12-24T03:31:17.189Z,8.60
2022-12-24T03:34:19.863Z,8.60
2022-12-24T03:37:22.293Z,8.60
2022-12-24T03:40:24.035Z,8.60
2022-12-24T03:43:25.815Z,8.60
2022-12-24T03:46:27.757Z,8.60
2022-12-24T03:49:29.578Z,8.70
2022-12-24T03:52:31.282Z,8.70
2022-12-24T03:55:32.960Z,8.70
2022-12-24T03:58:34.686Z,8.70
2022-12-24T04:01:36.506Z,8.70
2022-12-24T04:04:38.291Z,8.60
2022-12-24T04:07:40.003Z,8.60
2022-12-24T04:10:41.695Z,8.60
2022-12-24T04:13:43.458Z,8.60
2022-12-24T04:16:45.245Z,8.60
2022-12-24T04:19:54.257Z,8.60
2022-12-24T04:22:55.919Z,8.50
2022-12-24T04:26:00.206Z,8.50
2022-12-24T04:29:01.905Z,8.60
2022-12-24T04:32:03.844Z,8.50
2022-12-24T04:35:05.860Z,8.50
2022-12-24T04:38:08.857Z,8.50
2022-12-24T04:41:20.609Z,8.50
2022-12-24T04:44:24.759Z,8.50
2022-12-24T04:47:26.408Z,8.50
2022-12-24T04:50:28.117Z,8.50
2022-12-24T04:53:30.543Z,8.50
2022-12-24T04:56:32.909Z,8.50
2022-12-24T04:59:34.640Z,8.50
2022-12-24T05:02:36.653Z,8.50
2022-12-24T05:05:38.461Z,8.50
2022-12-24T05:08:40.370Z,8.40
2022-12-24T05:11:42.089Z,8.50
2022-12-24T05:14:43.779Z,8.50
2022-12-24T05:17:45.467Z,8.50
2022-12-24T05:20:48.292Z,8.50
2022-12-24T05:24:09.544Z,8.50
2022-12-24T05:27:11.223Z,8.50
2022-12-24T05:30:12.969Z,8.50
2022-12-24T05:33:14.613Z,8.50
2022-12-24T05:36:16.716Z,8.40
2022-12-24T05:39:19.099Z,8.40
2022-12-24T05:42:20.822Z,8.40
2022-12-24T05:45:22.607Z,8.30
2022-12-24T05:48:24.277Z,8.30
2022-12-24T05:51:26.065Z,8.30
2022-12-24T05:54:27.785Z,8.30
2022-12-24T05:57:29.463Z,8.30
2022-12-24T06:00:31.174Z,8.30
2022-12-24T06:03:33.698Z,8.20
2022-12-24T06:06:35.439Z,8.20
2022-12-24T06:09:37.123Z,8.20
2022-12-24T06:12:38.981Z,8.20
2022-12-24T06:15:40.698Z,8.20
2022-12-24T06:18:43.160Z,8.20
2022-12-24T06:21:44.830Z,8.10
2022-12-24T06:24:46.536Z,8.10
2022-12-24T06:27:48.221Z,8.10
2022-12-24T06:30:50.925Z,8.10
2022-12-24T06:33:53.418Z,8.10
2022-12-24T06:36:55.129Z,8.10
2022-12-24T06:39:56.845Z,8.10
2022-12-24T06:42:58.525Z,8.10
2022-12-24T06:46:01.265Z,8.10
2022-12-24T06:49:03.131Z,8.10
2022-12-24T06:52:04.971Z,8.10
2022-12-24T06:55:10.006Z,8.10
2022-12-24T06:58:11.902Z,8.10
2022-12-24T07:01:15.669Z,8.10
2022-12-24T07:04:20.399Z,8.20
2022-12-24T07:07:22.457Z,8.20
2022-12-24T07:10:26.792Z,8.20
2022-12-24T07:13:29.290Z,8.20
2022-12-24T07:16:31.178Z,8.20
2022-12-24T07:19:34.177Z,8.20
2022-12-24T07:22:35.865Z,8.20
2022-12-24T07:25:37.619Z,8.10
2022-12-24T07:28:47.598Z,8.10
2022-12-24T07:31:49.347Z,8.00
2022-12-24T07:34:51.059Z,8.00
2022-12-24T07:37:52.720Z,7.90
2022-12-24T07:40:58.082Z,7.90
2022-12-24T07:43:59.761Z,7.90
2022-12-24T07:47:01.930Z,7.90
2022-12-24T07:50:05.874Z,8.00
2022-12-24T07:53:09.090Z,7.90
2022-12-24T07:56:13.166Z,7.80
2022-12-24T07:59:17.552Z,7.80
2022-12-24T08:02:19.389Z,7.80
2022-12-24T08:05:21.238Z,7.80
2022-12-24T08:08:23.057Z,7.80
2022-12-24T08:11:24.755Z,7.90
2022-12-24T08:14:26.449Z,7.90
2022-12-24T08:17:32.130Z,7.90
2022-12-24T08:20:34.125Z,7.90
2022-12-24T08:23:39.058Z,8.00
2022-12-24T08:26:40.820Z,8.00
2022-12-24T08:29:42.576Z,8.00
2022-12-24T08:32:44.443Z,8.00
2022-12-24T08:35:50.615Z,7.90
2022-12-24T08:38:52.323Z,7.90
2022-12-24T08:41:54.067Z,7.90
2022-12-24T08:44:55.788Z,7.90
2022-12-24T08:48:00.315Z,7.80
2022-12-24T08:51:09.395Z,7.80
2022-12-24T08:54:13.286Z,7.90
2022-12-24T08:57:15.124Z,7.90
2022-12-24T09:00:17.686Z,8.00
2022-12-24T09:03:26.766Z,8.00
2022-12-24T09:06:29.382Z,8.00
2022-12-24T09:09:37.564Z,8.10
2022-12-24T09:12:39.837Z,8.10
2022-12-24T09:15:41.538Z,8.10
2022-12-24T09:18:43.509Z,8.10
2022-12-24T09:21:45.310Z,8.10
2022-12-24T09:24:47.113Z,8.10
2022-12-24T09:27:48.905Z,8.20
2022-12-24T09:31:10.789Z,8.10
2022-12-24T09:34:12.612Z,8.20
2022-12-24T09:37:14.469Z,8.20
2022-12-24T09:40:25.181Z,8.20
2022-12-24T09:43:32.170Z,8.30
2022-12-24T09:46:41.730Z,8.30
2022-12-24T09:49:47.518Z,8.40
2022-12-24T09:52:50.381Z,8.50
2022-12-24T09:55:56.958Z,8.50
2022-12-24T09:59:04.701Z,8.50
2022-12-24T10:02:11.918Z,8.50
2022-12-24T10:05:16.081Z,8.60
2022-12-24T10:08:29.781Z,8.60
2022-12-24T10:11:44.065Z,8.60
2022-12-24T10:15:18.052Z,8.60
2022-12-24T10:18:22.508Z,8.50
2022-12-24T10:21:39.534Z,8.60
2022-12-24T10:25:32.095Z,8.50
2022-12-24T10:29:12.986Z,8.50
2022-12-24T10:32:22.411Z,8.50
2022-12-24T10:35:33.459Z,8.50
2022-12-24T10:38:41.210Z,8.60
2022-12-24T10:41:45.638Z,8.60
2022-12-24T10:44:52.162Z,8.60
2022-12-24T10:47:58.738Z,8.60
2022-12-24T10:51:13.539Z,8.60
2022-12-24T10:54:27.420Z,8.60
2022-12-24T10:57:29.527Z,8.60
2022-12-24T11:00:36.234Z,8.60
2022-12-24T11:03:42.036Z,8.60
2022-12-24T11:07:00.420Z,8.60
2022-12-24T11:10:05.982Z,8.60
2022-12-24T11:13:39.618Z,8.70
2022-12-24T11:16:52.835Z,8.70
2022-12-24T11:19:57.608Z,8.70
2022-12-24T11:23:02.277Z,8.80
2022-12-24T11:26:07.205Z,8.80
2022-12-24T11:29:23.004Z,8.80
2022-12-24T11:32:24.906Z,8.90
2022-12-24T11:35:28.223Z,8.90
2022-12-24T11:38:32.859Z,8.90
2022-12-24T11:41:37.911Z,8.90
2022-12-24T11:44:48.835Z,8.90
2022-12-24T11:47:52.325Z,9.00
2022-12-24T11:51:00.018Z,9.10
2022-12-24T11:54:31.095Z,9.10
2022-12-24T11:57:52.896Z,9.00
2022-12-24T12:01:23.185Z,9.10
2022-12-24T12:04:30.336Z,9.10
2022-12-24T12:07:35.462Z,9.10
2022-12-24T12:10:41.107Z,9.10
2022-12-24T12:13:45.381Z,9.20
2022-12-24T12:17:00.588Z,9.10
2022-12-24T12:20:14.459Z,9.10
2022-12-24T12:23:24.442Z,9.20
2022-12-24T12:26:32.246Z,9.20
2022-12-24T12:29:39.991Z,9.20
2022-12-24T12:33:14.779Z,9.20
2022-12-24T12:36:20.905Z,9.30
2022-12-24T12:39:22.694Z,9.30
2022-12-24T12:42:37.102Z,9.30
2022-12-24T12:46:05.753Z,9.30
2022-12-24T12:49:26.145Z,9.30
2022-12-24T12:52:46.578Z,9.30
2022-12-24T12:55:55.549Z,9.40
2022-12-24T12:59:14.343Z,9.40
2022-12-24T13:02:26.102Z,9.40
2022-12-24T13:05:30.830Z,9.40
2022-12-24T13:09:07.685Z,9.40
2022-12-24T13:12:19.308Z,9.40
2022-12-24T13:15:27.069Z,9.40
2022-12-24T13:18:50.009Z,9.50
2022-12-24T13:21:55.875Z,9.50
2022-12-24T13:24:57.695Z,9.50
2022-12-24T13:28:17.701Z,9.50
2022-12-24T13:31:24.582Z,9.50
2022-12-24T13:34:36.910Z,9.50
2022-12-24T13:37:38.653Z,9.50
2022-12-24T13:40:40.329Z,9.50
2022-12-24T13:44:06.847Z,9.40
2022-12-24T13:47:14.551Z,9.40
2022-12-24T13:50:40.066Z,9.40
2022-12-24T13:53:46.821Z,9.40
2022-12-24T13:56:48.885Z,9.40
2022-12-24T14:00:12.735Z,9.40
2022-12-24T14:03:14.605Z,9.40
2022-12-24T14:06:25.466Z,9.40
2022-12-24T14:09:29.015Z,9.40
2022-12-24T14:12:40.220Z,9.40
2022-12-24T14:15:51.443Z,9.40
2022-12-24T14:19:15.182Z,9.30
2022-12-24T14:22:22.864Z,9.30
2022-12-24T14:25:25.126Z,9.30
2022-12-24T14:28:34.834Z,9.30
2022-12-24T14:31:36.566Z,9.30
2022-12-24T14:34:38.312Z,9.40
2022-12-24T14:37:45.114Z,9.40
2022-12-24T14:41:00.418Z,9.40
2022-12-24T14:44:35.926Z,9.50
2022-12-24T14:47:42.991Z,9.40
2022-12-24T14:51:09.519Z,9.40
2022-12-24T14:54:11.220Z,9.40
2022-12-24T14:57:19.792Z,9.40
2022-12-24T15:00:21.604Z,9.30
2022-12-24T15:03:26.171Z,9.30
2022-12-24T15:06:29.181Z,9.20
2022-12-24T15:09:33.872Z,9.20
2022-12-24T15:12:35.693Z,9.20
2022-12-24T15:15:37.448Z,9.10
2022-12-24T15:18:46.244Z,9.10
2022-12-24T15:21:49.866Z,9.00
2022-12-24T15:24:51.761Z,8.90
2022-12-24T15:27:53.876Z,8.90
2022-12-24T15:31:11.006Z,8.80
2022-12-24T15:34:38.936Z,8.80
2022-12-24T15:37:42.462Z,8.70
2022-12-24T15:40:48.973Z,8.60
2022-12-24T15:43:52.601Z,8.60
2022-12-24T15:47:08.660Z,8.60
2022-12-24T15:50:21.633Z,8.50
2022-12-24T15:53:34.234Z,8.50
2022-12-24T15:56:39.728Z,8.40
2022-12-24T15:59:41.528Z,8.40
2022-12-24T16:02:45.075Z,8.40
2022-12-24T16:05:53.378Z,8.30
2022-12-24T16:08:56.428Z,8.30
2022-12-24T16:12:03.209Z,8.30
2022-12-24T16:15:05.747Z,8.30
2022-12-24T16:18:16.509Z,8.30
2022-12-24T16:21:30.133Z,8.20
2022-12-24T16:24:32.002Z,8.10
2022-12-24T16:27:33.775Z,8.10
2022-12-24T16:30:38.130Z,8.10
2022-12-24T16:33:41.378Z,8.10
2022-12-24T16:36:48.469Z,8.00
2022-12-24T16:39:50.344Z,8.00
2022-12-24T16:43:12.552Z,7.90
2022-12-24T16:46:14.275Z,7.90
2022-12-24T16:49:21.109Z,7.90
2022-12-24T16:52:26.262Z,7.80
2022-12-24T16:55:28.028Z,7.80
2022-12-24T16:58:30.486Z,7.80
2022-12-24T17:01:32.349Z,7.70
2022-12-24T17:04:34.820Z,7.70
2022-12-24T17:07:42.885Z,7.70
2022-12-24T17:10:51.250Z,7.70
2022-12-24T17:13:53.095Z,7.80
2022-12-24T17:16:54.907Z,7.80
2022-12-24T17:19:57.535Z,7.80
2022-12-24T17:22:59.322Z,7.90
2022-12-24T17:26:01.378Z,7.90
2022-12-24T17:29:05.219Z,7.90
2022-12-24T17:32:07.023Z,7.90
2022-12-24T17:35:09.176Z,7.90
2022-12-24T17:38:10.837Z,8.00
2022-12-24T17:41:15.168Z,8.00
2022-12-24T17:44:17.112Z,8.00
2022-12-24T17:47:18.768Z,8.00
2022-12-24T17:50:20.413Z,8.00
2022-12-24T17:53:23.096Z,8.00
2022-12-24T17:56:25.281Z,8.00
2022-12-24T17:59:26.980Z,7.90
2022-12-24T18:02:28.806Z,7.90
2022-12-24T18:05:30.600Z,7.90
2022-12-24T18:08:32.605Z,7.80
2022-12-24T18:11:39.470Z,7.80
2022-12-24T18:14:41.161Z,7.80
2022-12-24T18:17:42.831Z,7.80
2022-12-24T18:20:46.885Z,7.80
2022-12-24T18:23:51.024Z,7.80
2022-12-24T18:26:52.806Z,7.70
2022-12-24T18:29:54.451Z,7.70
2022-12-24T18:32:57.213Z,7.70
2022-12-24T18:35:59.450Z,7.70
2022-12-24T18:39:01.469Z,7.60
2022-12-24T18:42:03.258Z,7.60
2022-12-24T18:45:05.424Z,7.60
2022-12-24T18:48:09.747Z,7.60
2022-12-24T18:51:11.734Z,7.50
2022-12-24T18:54:13.367Z,7.50
2022-12-24T18:57:15.064Z,7.50
2022-12-24T19:00:16.893Z,7.40
2022-12-24T19:03:18.665Z,7.40
2022-12-24T19:06:21.676Z,7.40
2022-12-24T19:09:23.373Z,7.40
2022-12-24T19:12:25.118Z,7.40
2022-12-24T19:15:32.259Z,7.40
2022-12-24T19:18:37.236Z,7.40
2022-12-24T19:21:39.010Z,7.40
2022-12-24T19:24:40.657Z,7.40
2022-12-24T19:28:12.365Z,7.30
2022-12-24T19:31:18.447Z,7.30
2022-12-24T19:34:20.291Z,7.30
2022-12-24T19:37:22.215Z,7.30
2022-12-24T19:40:24.076Z,7.30
2022-12-24T19:43:25.748Z,7.20
2022-12-24T19:46:30.380Z,7.20
2022-12-24T19:49:32.073Z,7.20
2022-12-24T19:52:33.941Z,7.20
2022-12-24T19:55:35.938Z,7.20
2022-12-24T19:58:37.739Z,7.20
2022-12-24T20:01:39.797Z,7.20
2022-12-24T20:04:41.866Z,7.20
2022-12-24T20:07:43.681Z,7.20
2022-12-24T20:10:45.359Z,7.20
2022-12-24T20:13:47.266Z,7.20
2022-12-24T20:16:49.971Z,7.20
2022-12-24T20:19:51.795Z,7.20
2022-12-24T20:22:53.535Z,7.20
2022-12-24T20:26:00.852Z,7.10
2022-12-24T20:29:09.618Z,7.10
2022-12-24T20:32:11.322Z,7.00
2022-12-24T20:35:15.972Z,7.00
2022-12-24T20:38:18.267Z,6.90
2022-12-24T20:41:22.929Z,6.90
2022-12-24T20:44:24.619Z,6.90
2022-12-24T20:47:27.363Z,6.90
2022-12-24T20:50:29.090Z,6.90
2022-12-24T20:53:40.286Z,6.90
2022-12-24T20:56:42.074Z,6.90
2022-12-24T20:59:43.762Z,6.80
2022-12-24T21:02:46.585Z,6.90
2022-12-24T21:05:48.417Z,6.90
2022-12-24T21:08:53.529Z,6.90
2022-12-24T21:11:55.266Z,6.80
2022-12-24T21:14:57.033Z,6.80
2022-12-24T21:17:59.389Z,6.80
2022-12-24T21:21:01.410Z,6.80
2022-12-24T21:24:04.787Z,6.80
2022-12-24T21:27:06.563Z,6.90
2022-12-24T21:30:20.421Z,6.90
2022-12-24T21:34:13.199Z,6.90
2022-12-24T21:37:14.902Z,6.90
2022-12-24T21:40:16.667Z,7.00
2022-12-24T21:43:18.366Z,7.00
2022-12-24T21:46:25.071Z,7.00
2022-12-24T21:49:45.401Z,7.10
2022-12-24T21:52:47.152Z,7.10
2022-12-24T21:55:48.839Z,7.10
2022-12-24T21:58:51.392Z,7.10
2022-12-24T22:01:53.280Z,7.10
2022-12-24T22:04:55.129Z,7.10
2022-12-24T22:08:15.348Z,7.10
2022-12-24T22:11:35.639Z,7.10
2022-12-24T22:14:43.271Z,7.10
2022-12-24T22:17:45.129Z,7.20
2022-12-24T22:20:47.447Z,7.20
2022-12-24T22:23:51.049Z,7.30
2022-12-24T22:26:52.813Z,7.20
2022-12-24T22:29:54.554Z,7.10
2022-12-24T22:32:57.099Z,7.10
2022-12-24T22:35:58.747Z,7.10
2022-12-24T22:39:00.433Z,7.20
2022-12-24T22:42:02.344Z,7.10
2022-12-24T22:45:05.078Z,7.10
2022-12-24T22:48:07.223Z,7.00
2022-12-24T22:51:19.373Z,7.00
2022-12-24T22:54:21.659Z,7.00
2022-12-24T22:57:23.380Z,7.00
2022-12-24T23:00:44.779Z,7.00
2022-12-24T23:03:46.508Z,6.90
2022-12-24T23:06:48.369Z,6.90
2022-12-24T23:09:50.078Z,6.90
2022-12-24T23:13:14.865Z,6.90
2022-12-24T23:16:17.185Z,6.90
2022-12-24T23:19:18.857Z,6.80
2022-12-24T23:22:20.533Z,6.90
2022-12-24T23:25:22.515Z,6.90
2022-12-24T23:28:24.127Z,6.90
2022-12-24T23:31:26.452Z,6.90
2022-12-24T23:34:28.209Z,6.90
2022-12-24T23:37:35.086Z,7.00
2022-12-24T23:41:04.006Z,6.90
2022-12-24T23:44:05.884Z,6.90
2022-12-24T23:47:07.672Z,6.90
2022-12-24T23:50:11.082Z,7.00
2022-12-24T23:53:13.699Z,7.10
2022-12-24T23:56:15.651Z,7.00
2022-12-24T23:59:17.451Z,7.10
